Time;durP1;ratioP1;P1;durP2;ratioP2;P2;SDS_P1;SDS_P2;PMS_P1;PMS_P2;Temp;Humidity;BMP_temperature;BMP_pressure;BME280_temperature;BME280_humidity;BME280_pressure;Samples;Min_cycle;Max_cycle;Signal;HPM_P1;HPM_P2
2021/08/18 00:00:40;;;;;;;23.02;9.35;;;;;;;;;;4767275;30;20521;-73
2021/08/18 00:03:06;;;;;;;25.38;8.27;;;;;;;;;;4769116;30;20083;-73
2021/08/18 00:05:31;;;;;;;26.95;8.75;;;;;;;;;;4752568;30;20064;-73
2021/08/18 00:07:57;;;;;;;27.15;9.05;;;;;;;;;;4768136;30;20050;-74
2021/08/18 00:10:24;;;;;;;22.42;8.10;;;;;;;;;;4767078;30;20035;-76
2021/08/18 00:12:50;;;;;;;19.73;8.98;;;;;;;;;;4751155;30;20114;-74
2021/08/18 00:15:16;;;;;;;21.65;9.10;;;;;;;;;;4752057;30;20134;-74
2021/08/18 00:17:43;;;;;;;23.38;9.15;;;;;;;;;;4767045;30;20032;-73
2021/08/18 00:20:10;;;;;;;25.33;9.93;;;;;;;;;;4766784;30;20040;-73
2021/08/18 00:22:35;;;;;;;25.42;8.93;;;;;;;;;;4752223;30;20119;-75
2021/08/18 00:25:01;;;;;;;18.55;8.30;;;;;;;;;;4768172;30;20463;-74
2021/08/18 00:27:26;;;;;;;21.48;7.93;;;;;;;;;;4752072;30;20480;-74
2021/08/18 00:29:52;;;;;;;21.42;9.77;;;;;;;;;;4768057;30;20042;-71
2021/08/18 00:32:17;;;;;;;21.80;8.38;;;;;;;;;;4767823;30;20451;-72
2021/08/18 00:34:43;;;;;;;22.27;8.27;;;;;;;;;;4767140;30;20044;-72
2021/08/18 00:37:08;;;;;;;22.50;8.25;;;;;;;;;;4766645;30;20039;-72
2021/08/18 00:39:34;;;;;;;24.77;9.05;;;;;;;;;;4767838;30;20058;-72
2021/08/18 00:41:59;;;;;;;19.45;7.55;;;;;;;;;;4767859;30;20036;-72
2021/08/18 00:44:26;;;;;;;21.85;7.72;;;;;;;;;;4767808;30;20449;-74
2021/08/18 00:46:55;;;;;;;19.27;8.68;;;;;;;;;;4767274;30;20042;-74
2021/08/18 00:49:21;;;;;;;19.77;7.85;;;;;;;;;;4766085;30;20040;-74
2021/08/18 00:51:51;;;;;;;23.00;8.38;;;;;;;;;;4765680;30;20031;-73
2021/08/18 00:54:17;;;;;;;25.25;9.05;;;;;;;;;;4767377;30;20035;-74
2021/08/18 00:56:44;;;;;;;23.50;8.40;;;;;;;;;;4767396;30;20043;-74
2021/08/18 00:59:10;;;;;;;22.35;8.57;;;;;;;;;;4751182;30;20393;-73
2021/08/18 01:01:38;;;;;;;25.10;8.13;;;;;;;;;;4766093;30;20027;-74
2021/08/18 01:04:07;;;;;;;26.05;9.23;;;;;;;;;;4767135;30;20032;-74
2021/08/18 01:06:33;;;;;;;23.90;8.15;;;;;;;;;;4767226;30;20084;-75
2021/08/18 01:08:59;;;;;;;19.40;7.45;;;;;;;;;;4750575;30;20130;-76
2021/08/18 01:11:25;;;;;;;20.10;8.00;;;;;;;;;;4767073;30;20123;-75
2021/08/18 01:13:50;;;;;;;20.20;7.47;;;;;;;;;;4766714;30;20063;-73
2021/08/18 01:16:17;;;;;;;27.08;8.40;;;;;;;;;;4767284;30;20031;-74
2021/08/18 01:18:43;;;;;;;23.30;8.25;;;;;;;;;;4766389;30;20028;-75
2021/08/18 01:21:09;;;;;;;22.05;9.68;;;;;;;;;;4767720;30;20032;-75
2021/08/18 01:23:34;;;;;;;20.27;7.40;;;;;;;;;;4752290;30;20052;-75
2021/08/18 01:26:00;;;;;;;22.00;8.18;;;;;;;;;;4751142;30;20032;-73
2021/08/18 01:28:29;;;;;;;21.10;7.75;;;;;;;;;;4767557;30;20051;-74
2021/08/18 01:30:55;;;;;;;21.98;7.82;;;;;;;;;;4766963;30;20063;-74
2021/08/18 01:33:20;;;;;;;25.83;9.15;;;;;;;;;;4765834;30;20469;-74
2021/08/18 01:35:49;;;;;;;21.23;7.63;;;;;;;;;;4765466;30;20481;-75
2021/08/18 01:38:18;;;;;;;21.25;8.35;;;;;;;;;;4765698;30;20457;-75
2021/08/18 01:40:47;;;;;;;23.48;9.05;;;;;;;;;;4748005;30;20060;-75
2021/08/18 01:43:13;;;;;;;19.95;7.30;;;;;;;;;;4747695;30;20092;-74
2021/08/18 01:45:42;;;;;;;23.33;10.07;;;;;;;;;;4748376;30;20044;-74
2021/08/18 01:48:11;;;;;;;29.45;9.98;;;;;;;;;;4749204;30;20042;-75
2021/08/18 01:50:37;;;;;;;28.50;9.68;;;;;;;;;;4747936;30;20056;-73
2021/08/18 01:53:03;;;;;;;25.55;8.00;;;;;;;;;;4747174;30;20030;-75
2021/08/18 01:55:29;;;;;;;24.17;9.52;;;;;;;;;;4762380;30;20177;-74
2021/08/18 01:57:57;;;;;;;24.80;9.77;;;;;;;;;;4762322;30;20135;-74
2021/08/18 02:00:23;;;;;;;21.60;9.05;;;;;;;;;;4748800;30;20079;-74
2021/08/18 02:02:49;;;;;;;23.52;8.25;;;;;;;;;;4748833;30;20418;-73
2021/08/18 02:05:15;;;;;;;28.27;10.20;;;;;;;;;;4747496;30;20047;-73
2021/08/18 02:07:40;;;;;;;20.15;7.75;;;;;;;;;;4762161;30;20464;-74
2021/08/18 02:10:12;;;;;;;20.00;9.50;;;;;;;;;;4761059;30;20386;-75
2021/08/18 02:12:38;;;;;;;18.48;8.38;;;;;;;;;;4762124;30;20040;-74
2021/08/18 02:15:08;;;;;;;21.70;8.05;;;;;;;;;;4746803;30;20047;-75
2021/08/18 02:17:33;;;;;;;19.58;7.88;;;;;;;;;;4748870;30;20043;-74
2021/08/18 02:19:59;;;;;;;22.90;8.00;;;;;;;;;;4747447;30;20036;-75
2021/08/18 02:22:24;;;;;;;24.85;9.10;;;;;;;;;;4747727;30;20028;-75
2021/08/18 02:24:50;;;;;;;25.35;8.68;;;;;;;;;;4748923;30;20119;-75
2021/08/18 02:27:15;;;;;;;21.05;9.07;;;;;;;;;;4749011;30;20036;-74
2021/08/18 02:29:41;;;;;;;23.70;8.90;;;;;;;;;;4749257;30;20387;-74
2021/08/18 02:32:07;;;;;;;25.98;9.48;;;;;;;;;;4748533;30;20475;-75
2021/08/18 02:34:32;;;;;;;24.20;8.98;;;;;;;;;;4748740;30;20042;-74
2021/08/18 02:36:58;;;;;;;21.23;8.63;;;;;;;;;;4748847;30;20036;-74
2021/08/18 02:39:23;;;;;;;21.40;8.00;;;;;;;;;;4751295;30;20055;-74
2021/08/18 02:41:49;;;;;;;20.92;8.35;;;;;;;;;;4766541;30;20374;-74
2021/08/18 02:44:14;;;;;;;18.05;7.28;;;;;;;;;;4764855;30;20119;-74
2021/08/18 02:46:40;;;;;;;22.80;7.70;;;;;;;;;;4766319;30;20050;-73
2021/08/18 02:49:05;;;;;;;16.83;7.05;;;;;;;;;;4740894;30;20487;-74
2021/08/18 02:51:31;;;;;;;20.98;7.35;;;;;;;;;;4744127;30;20032;-73
2021/08/18 02:53:56;;;;;;;21.08;7.78;;;;;;;;;;4730515;30;20506;-73
2021/08/18 02:56:22;;;;;;;21.33;8.68;;;;;;;;;;4745444;30;20390;-74
2021/08/18 02:58:47;;;;;;;19.95;8.07;;;;;;;;;;4734060;30;20028;-74
2021/08/18 03:01:13;;;;;;;26.52;8.98;;;;;;;;;;4733958;30;20491;-73
2021/08/18 03:03:38;;;;;;;19.63;7.88;;;;;;;;;;4732693;30;20071;-74
2021/08/18 03:06:04;;;;;;;21.63;7.72;;;;;;;;;;4732534;30;20452;-73
2021/08/18 03:08:29;;;;;;;21.38;7.45;;;;;;;;;;4734271;30;20040;-73
2021/08/18 03:10:55;;;;;;;23.13;7.47;;;;;;;;;;4747196;30;20470;-74
2021/08/18 03:13:20;;;;;;;23.92;8.45;;;;;;;;;;4734104;30;20033;-73
2021/08/18 03:15:46;;;;;;;23.30;8.32;;;;;;;;;;4734004;30;20550;-73
2021/08/18 03:18:11;;;;;;;24.75;8.02;;;;;;;;;;4747102;30;20115;-74
2021/08/18 03:20:37;;;;;;;23.52;8.40;;;;;;;;;;4732736;30;20039;-75
2021/08/18 03:23:02;;;;;;;20.95;8.55;;;;;;;;;;4733660;30;20120;-75
2021/08/18 03:25:28;;;;;;;23.77;8.35;;;;;;;;;;4733693;30;20032;-74
2021/08/18 03:27:53;;;;;;;20.63;8.10;;;;;;;;;;4733610;30;20444;-74
2021/08/18 03:30:19;;;;;;;31.17;8.55;;;;;;;;;;4732511;30;20041;-75
2021/08/18 03:32:45;;;;;;;24.13;7.95;;;;;;;;;;4732374;30;20041;-73
2021/08/18 03:35:10;;;;;;;20.52;8.85;;;;;;;;;;4733366;30;20036;-75
2021/08/18 03:37:36;;;;;;;25.55;8.25;;;;;;;;;;4733581;30;20410;-75
2021/08/18 03:40:02;;;;;;;29.63;9.82;;;;;;;;;;4731980;30;20410;-74
2021/08/18 03:42:29;;;;;;;21.60;7.15;;;;;;;;;;4733809;30;20049;-74
2021/08/18 03:44:55;;;;;;;24.70;9.57;;;;;;;;;;4732300;30;20510;-73
2021/08/18 03:47:20;;;;;;;31.03;9.30;;;;;;;;;;4732004;30;20043;-75
2021/08/18 03:49:46;;;;;;;24.17;8.73;;;;;;;;;;4746584;30;20033;-75
2021/08/18 03:52:11;;;;;;;27.73;8.68;;;;;;;;;;4746683;30;20031;-75
2021/08/18 03:54:37;;;;;;;23.30;8.43;;;;;;;;;;4732741;30;20111;-74
2021/08/18 03:57:02;;;;;;;21.77;8.32;;;;;;;;;;4733069;30;20552;-75
2021/08/18 03:59:28;;;;;;;24.65;8.82;;;;;;;;;;4733089;30;20111;-74
2021/08/18 04:01:53;;;;;;;26.65;9.18;;;;;;;;;;4746721;30;20032;-76
2021/08/18 04:04:19;;;;;;;35.30;8.75;;;;;;;;;;4732782;30;20039;-73
2021/08/18 04:06:44;;;;;;;26.48;9.07;;;;;;;;;;4733885;30;20040;-73
2021/08/18 04:09:10;;;;;;;27.27;9.70;;;;;;;;;;4732296;30;20474;-72
2021/08/18 04:11:35;;;;;;;22.07;8.70;;;;;;;;;;4732645;30;20036;-73
2021/08/18 04:14:01;;;;;;;27.15;9.88;;;;;;;;;;4731112;30;20037;-73
2021/08/18 04:16:27;;;;;;;36.47;11.65;;;;;;;;;;4731232;30;20264;-73
2021/08/18 04:18:52;;;;;;;28.00;10.73;;;;;;;;;;4732884;30;20031;-72
2021/08/18 04:21:18;;;;;;;28.10;10.50;;;;;;;;;;4746314;30;20043;-72
2021/08/18 04:23:43;;;;;;;30.33;10.65;;;;;;;;;;4732897;30;20127;-72
2021/08/18 04:26:10;;;;;;;23.65;9.15;;;;;;;;;;4733005;30;20040;-73
2021/08/18 04:28:36;;;;;;;27.27;10.07;;;;;;;;;;4732829;30;20143;-72
2021/08/18 04:31:01;;;;;;;30.30;10.55;;;;;;;;;;4745848;30;20124;-73
2021/08/18 04:33:27;;;;;;;32.55;10.35;;;;;;;;;;4732468;30;20036;-73
2021/08/18 04:35:52;;;;;;;38.97;12.07;;;;;;;;;;4732334;30;20035;-72
2021/08/18 04:38:18;;;;;;;30.80;12.73;;;;;;;;;;4730914;30;20033;-72
2021/08/18 04:40:43;;;;;;;29.30;10.15;;;;;;;;;;4759254;30;20429;-73
2021/08/18 04:43:13;;;;;;;19.20;8.37;;;;;;;;;;4763426;30;20047;-72
2021/08/18 04:45:39;;;;;;;26.37;9.33;;;;;;;;;;4750582;30;20497;-73
2021/08/18 04:48:05;;;;;;;28.88;10.13;;;;;;;;;;4748919;30;20173;-75
2021/08/18 04:50:31;;;;;;;36.80;11.27;;;;;;;;;;4763665;30;20159;-71
2021/08/18 04:52:56;;;;;;;28.27;11.30;;;;;;;;;;4750082;30;20036;-72
2021/08/18 04:55:22;;;;;;;35.53;11.65;;;;;;;;;;4749861;30;20046;-73
2021/08/18 04:57:47;;;;;;;45.08;20.75;;;;;;;;;;4763086;30;20040;-72
2021/08/18 05:00:13;;;;;;;28.67;10.52;;;;;;;;;;4747975;30;20036;-73
2021/08/18 05:02:39;;;;;;;26.33;9.80;;;;;;;;;;4749496;30;20036;-72
2021/08/18 05:05:05;;;;;;;31.25;10.35;;;;;;;;;;4749963;30;20489;-72
2021/08/18 05:07:31;;;;;;;33.70;9.98;;;;;;;;;;4750156;30;20039;-72
2021/08/18 05:09:56;;;;;;;29.33;11.23;;;;;;;;;;4749759;30;20040;-71
2021/08/18 05:12:22;;;;;;;27.75;10.60;;;;;;;;;;4749824;30;20066;-72
2021/08/18 05:14:48;;;;;;;29.88;9.80;;;;;;;;;;4749776;30;20051;-72
2021/08/18 05:17:13;;;;;;;25.50;10.13;;;;;;;;;;4750052;30;20035;-71
2021/08/18 05:19:39;;;;;;;26.50;8.32;;;;;;;;;;4749640;30;20036;-71
2021/08/18 05:22:04;;;;;;;25.85;9.60;;;;;;;;;;4749400;30;20032;-71
2021/08/18 05:24:31;;;;;;;31.13;10.45;;;;;;;;;;4762926;30;20147;-72
2021/08/18 05:26:56;;;;;;;31.98;11.48;;;;;;;;;;4763159;30;20121;-71
2021/08/18 05:29:22;;;;;;;30.85;11.02;;;;;;;;;;4762748;30;20486;-70
2021/08/18 05:31:47;;;;;;;24.88;8.63;;;;;;;;;;4748373;30;20555;-72
2021/08/18 05:34:13;;;;;;;41.05;10.65;;;;;;;;;;4747536;30;20406;-72
2021/08/18 05:36:39;;;;;;;33.70;10.20;;;;;;;;;;4751720;30;20042;-72
2021/08/18 05:39:04;;;;;;;29.50;9.88;;;;;;;;;;4739126;30;20090;-72
2021/08/18 05:41:30;;;;;;;30.88;11.30;;;;;;;;;;4766310;30;20097;-72
2021/08/18 05:43:55;;;;;;;36.22;9.52;;;;;;;;;;4767240;30;20039;-73
2021/08/18 05:46:21;;;;;;;29.23;9.25;;;;;;;;;;4767152;30;20451;-73
2021/08/18 05:48:46;;;;;;;27.25;8.93;;;;;;;;;;4767719;30;20046;-73
2021/08/18 05:51:12;;;;;;;27.58;9.20;;;;;;;;;;4767338;30;20040;-72
2021/08/18 05:53:38;;;;;;;24.25;9.77;;;;;;;;;;4755187;30;20031;-72
2021/08/18 05:56:04;;;;;;;28.58;8.30;;;;;;;;;;4783995;29;20062;-72
2021/08/18 05:58:29;;;;;;;26.90;10.00;;;;;;;;;;4784326;30;20062;-71
2021/08/18 06:00:55;;;;;;;27.52;8.95;;;;;;;;;;4784311;29;20468;-73
2021/08/18 06:03:20;;;;;;;23.58;9.43;;;;;;;;;;4782075;30;20050;-71
2021/08/18 06:05:46;;;;;;;24.42;8.75;;;;;;;;;;4768966;30;20422;-72
2021/08/18 06:08:12;;;;;;;22.20;9.50;;;;;;;;;;4747992;30;20534;-73
2021/08/18 06:10:37;;;;;;;25.45;8.43;;;;;;;;;;4765217;30;20165;-72
2021/08/18 06:13:02;;;;;;;25.42;8.20;;;;;;;;;;4766885;30;20040;-73
2021/08/18 06:15:32;;;;;;;19.52;9.30;;;;;;;;;;4779744;30;20457;-72
2021/08/18 06:17:58;;;;;;;24.92;8.48;;;;;;;;;;4762707;29;20039;-72
2021/08/18 06:20:24;;;;;;;19.88;7.68;;;;;;;;;;4769311;30;20046;-73
2021/08/18 06:22:50;;;;;;;21.60;8.65;;;;;;;;;;4775694;30;20027;-74
2021/08/18 06:25:17;;;;;;;17.63;7.28;;;;;;;;;;4773246;30;20062;-71
2021/08/18 06:27:43;;;;;;;24.10;7.97;;;;;;;;;;4784420;30;20043;-70
2021/08/18 06:30:10;;;;;;;19.35;8.25;;;;;;;;;;4766492;30;20027;-74
2021/08/18 06:32:36;;;;;;;22.45;7.78;;;;;;;;;;4786013;29;20045;-72
2021/08/18 06:35:04;;;;;;;23.20;9.27;;;;;;;;;;4776133;30;20034;-71
2021/08/18 06:37:30;;;;;;;26.33;9.02;;;;;;;;;;4770471;30;20043;-71
2021/08/18 06:39:56;;;;;;;21.35;7.70;;;;;;;;;;4762682;30;20056;-71
2021/08/18 06:42:22;;;;;;;20.98;8.38;;;;;;;;;;4735466;30;20492;-71
2021/08/18 06:44:50;;;;;;;32.72;7.68;;;;;;;;;;4771005;30;20365;-72
2021/08/18 06:47:16;;;;;;;19.10;6.78;;;;;;;;;;4775669;30;20027;-71
2021/08/18 06:49:43;;;;;;;18.02;7.47;;;;;;;;;;4789184;30;20461;-72
2021/08/18 06:52:10;;;;;;;17.55;7.07;;;;;;;;;;4775834;29;20433;-72
2021/08/18 06:54:35;;;;;;;18.50;9.07;;;;;;;;;;4753229;30;20120;-70
2021/08/18 06:57:01;;;;;;;22.40;7.63;;;;;;;;;;4753946;30;20129;-72
2021/08/18 06:59:27;;;;;;;21.73;8.63;;;;;;;;;;4750371;30;20024;-72
2021/08/18 07:01:53;;;;;;;18.35;6.75;;;;;;;;;;4741683;30;20654;-73
2021/08/18 07:04:18;;;;;;;13.60;5.30;;;;;;;;;;4763625;30;20042;-72
2021/08/18 07:06:44;;;;;;;15.63;6.93;;;;;;;;;;4776330;30;20541;-72
2021/08/18 07:09:09;;;;;;;12.48;5.90;;;;;;;;;;4758039;30;20125;-73
2021/08/18 07:11:35;;;;;;;13.63;6.80;;;;;;;;;;4752844;30;20048;-73
2021/08/18 07:14:02;;;;;;;13.65;5.82;;;;;;;;;;4777218;30;20382;-73
2021/08/18 07:16:29;;;;;;;17.58;6.20;;;;;;;;;;4751041;30;20032;-70
2021/08/18 07:18:56;;;;;;;11.40;4.88;;;;;;;;;;4758129;30;21229;-74
2021/08/18 07:21:22;;;;;;;24.88;6.60;;;;;;;;;;4762621;30;20035;-74
2021/08/18 07:23:49;;;;;;;11.95;5.35;;;;;;;;;;4767459;30;20035;-73
2021/08/18 07:26:15;;;;;;;12.40;4.25;;;;;;;;;;4754398;30;20373;-71
2021/08/18 07:28:41;;;;;;;10.77;5.10;;;;;;;;;;4768248;29;20042;-73
2021/08/18 07:31:06;;;;;;;10.32;4.45;;;;;;;;;;4754441;30;20031;-74
2021/08/18 07:33:32;;;;;;;17.80;5.55;;;;;;;;;;4772763;30;20437;-72
2021/08/18 07:35:57;;;;;;;15.48;5.88;;;;;;;;;;4751362;30;20493;-72
2021/08/18 07:38:23;;;;;;;12.38;4.18;;;;;;;;;;4768251;30;20042;-73
2021/08/18 07:40:49;;;;;;;11.13;4.63;;;;;;;;;;4765997;30;20086;-73
2021/08/18 07:43:14;;;;;;;9.00;4.47;;;;;;;;;;4765271;30;20589;-72
2021/08/18 07:45:41;;;;;;;13.52;4.50;;;;;;;;;;4751748;30;20035;-72
2021/08/18 07:48:08;;;;;;;7.25;3.88;;;;;;;;;;4765420;30;20032;-73
2021/08/18 07:50:34;;;;;;;7.40;4.10;;;;;;;;;;4766588;30;20110;-72
2021/08/18 07:52:59;;;;;;;10.45;4.55;;;;;;;;;;4765944;30;20122;-74
2021/08/18 07:55:25;;;;;;;6.22;3.45;;;;;;;;;;4746073;30;20134;-73
2021/08/18 07:57:50;;;;;;;11.73;5.10;;;;;;;;;;4765861;30;20388;-72
2021/08/18 08:00:16;;;;;;;9.77;4.30;;;;;;;;;;4777572;30;20039;-73
2021/08/18 08:02:46;;;;;;;9.57;4.10;;;;;;;;;;4774093;30;20378;-72
2021/08/18 08:05:15;;;;;;;7.70;3.80;;;;;;;;;;4767859;30;20036;-72
2021/08/18 08:07:41;;;;;;;11.25;4.07;;;;;;;;;;4767723;30;20027;-73
2021/08/18 08:10:08;;;;;;;11.13;4.10;;;;;;;;;;4765055;30;20056;-72
2021/08/18 08:12:34;;;;;;;6.10;3.78;;;;;;;;;;4760180;30;20032;-73
2021/08/18 08:15:00;;;;;;;5.00;2.95;;;;;;;;;;4764282;30;20453;-72
2021/08/18 08:17:26;;;;;;;6.05;3.10;;;;;;;;;;4768043;30;20108;-73
2021/08/18 08:19:51;;;;;;;9.57;2.90;;;;;;;;;;4766301;30;20020;-73
2021/08/18 08:22:17;;;;;;;7.15;3.05;;;;;;;;;;4769275;30;20511;-73
2021/08/18 08:24:43;;;;;;;4.45;2.58;;;;;;;;;;4769497;30;20027;-73
2021/08/18 08:27:09;;;;;;;8.98;3.10;;;;;;;;;;4751387;30;20431;-72
2021/08/18 08:29:35;;;;;;;5.00;2.67;;;;;;;;;;4769815;30;20031;-73
2021/08/18 08:32:02;;;;;;;12.95;2.13;;;;;;;;;;4764291;30;20197;-74
2021/08/18 08:34:28;;;;;;;4.38;2.17;;;;;;;;;;4751729;30;20126;-74
2021/08/18 08:36:53;;;;;;;34.35;8.23;;;;;;;;;;4759961;30;20096;-73
2021/08/18 08:39:19;;;;;;;4.72;2.40;;;;;;;;;;4755533;30;20580;-74
2021/08/18 08:41:45;;;;;;;6.07;2.50;;;;;;;;;;4759566;30;20208;-72
2021/08/18 08:44:31;;;;;;;8.95;3.28;;;;;;;;;;4760320;30;20047;-71
2021/08/18 08:46:56;;;;;;;18.00;3.15;;;;;;;;;;4760467;30;20050;-72
2021/08/18 08:49:22;;;;;;;9.15;3.00;;;;;;;;;;4760455;30;20048;-73
2021/08/18 08:51:50;;;;;;;6.20;3.00;;;;;;;;;;4758358;30;20047;-72
2021/08/18 08:54:17;;;;;;;8.18;2.90;;;;;;;;;;4747166;30;20795;-73
2021/08/18 08:56:43;;;;;;;8.88;2.78;;;;;;;;;;4758964;30;20057;-72
2021/08/18 08:59:10;;;;;;;11.05;2.70;;;;;;;;;;4761482;30;20039;-72
2021/08/18 09:02:02;;;;;;;8.13;2.90;;;;;;;;;;4758396;30;20705;-72
2021/08/18 09:04:40;;;;;;;7.53;2.80;;;;;;;;;;4748372;30;20042;-73
2021/08/18 09:07:17;;;;;;;3.40;2.00;;;;;;;;;;4759452;30;20047;-72
2021/08/18 09:09:54;;;;;;;6.07;3.00;;;;;;;;;;4759498;30;20032;-73
2021/08/18 09:12:39;;;;;;;5.68;2.10;;;;;;;;;;4764371;30;20042;-73
2021/08/18 09:15:25;;;;;;;5.13;2.17;;;;;;;;;;4757544;30;20051;-74
2021/08/18 09:17:55;;;;;;;3.92;2.25;;;;;;;;;;4769178;30;20049;-71
2021/08/18 09:20:23;;;;;;;3.80;2.58;;;;;;;;;;4754476;30;20062;-73
2021/08/18 09:22:54;;;;;;;3.90;2.05;;;;;;;;;;4763115;30;20069;-72
2021/08/18 09:25:31;;;;;;;5.05;2.50;;;;;;;;;;4748901;30;20055;-73
2021/08/18 09:28:18;;;;;;;6.38;2.30;;;;;;;;;;4764708;30;20051;-72
2021/08/18 09:30:45;;;;;;;5.15;2.78;;;;;;;;;;4767833;30;20042;-72
2021/08/18 09:33:13;;;;;;;3.65;2.58;;;;;;;;;;4766905;29;20031;-72
2021/08/18 09:35:40;;;;;;;3.28;1.92;;;;;;;;;;4747560;30;20214;-74
2021/08/18 09:38:09;;;;;;;8.30;2.85;;;;;;;;;;4768469;30;20027;-71
2021/08/18 09:40:37;;;;;;;4.15;1.67;;;;;;;;;;4757331;30;20052;-75
2021/08/18 09:43:11;;;;;;;3.88;2.20;;;;;;;;;;4762476;30;20042;-74
2021/08/18 09:45:44;;;;;;;3.75;2.25;;;;;;;;;;4765010;30;20126;-73
2021/08/18 09:48:16;;;;;;;5.28;2.63;;;;;;;;;;4762274;30;20062;-74
2021/08/18 09:50:41;;;;;;;;;;;;;;;;;;4771708;30;20041;-73
2021/08/18 09:53:18;;;;;;;4.57;2.70;;;;;;;;;;4763729;30;20021;-74
2021/08/18 09:55:49;;;;;;;6.68;2.15;;;;;;;;;;4769206;30;20039;-73
2021/08/18 09:58:25;;;;;;;7.18;3.03;;;;;;;;;;4747070;30;20089;-73
2021/08/18 10:00:52;;;;;;;4.90;2.22;;;;;;;;;;4747468;30;20470;-71
2021/08/18 10:03:18;;;;;;;4.20;2.05;;;;;;;;;;4769583;30;20042;-74
2021/08/18 10:05:44;;;;;;;4.60;2.10;;;;;;;;;;4732124;30;20063;-73
2021/08/18 10:08:10;;;;;;;3.00;1.83;;;;;;;;;;4759243;30;20072;-73
2021/08/18 10:10:40;;;;;;;4.13;2.17;;;;;;;;;;4744877;30;20032;-72
2021/08/18 10:13:07;;;;;;;7.88;2.15;;;;;;;;;;4745667;30;20061;-74
2021/08/18 10:15:33;;;;;;;4.78;2.45;;;;;;;;;;4762846;30;20067;-73
2021/08/18 10:18:00;;;;;;;5.05;2.60;;;;;;;;;;4764173;30;20028;-73
2021/08/18 10:20:27;;;;;;;4.78;2.30;;;;;;;;;;4765151;30;20363;-73
2021/08/18 10:23:38;;;;;;;4.43;1.85;;;;;;;;;;4759697;30;20038;-72
2021/08/18 10:26:04;;;;;;;3.08;1.90;;;;;;;;;;4754175;30;20146;-72
2021/08/18 10:29:06;;;;;;;4.55;2.17;;;;;;;;;;4762923;30;20052;-73
2021/08/18 10:31:43;;;;;;;5.40;2.22;;;;;;;;;;4744766;30;20039;-73
2021/08/18 10:34:11;;;;;;;4.57;1.70;;;;;;;;;;4763158;30;20042;-73
2021/08/18 10:36:41;;;;;;;7.50;2.05;;;;;;;;;;4757564;30;20036;-73
2021/08/18 10:39:18;;;;;;;5.60;2.33;;;;;;;;;;4747850;30;20366;-75
2021/08/18 10:42:00;;;;;;;5.45;2.28;;;;;;;;;;4759289;30;20391;-73
2021/08/18 10:44:52;;;;;;;5.22;2.67;;;;;;;;;;4746507;30;20036;-74
2021/08/18 10:47:22;;;;;;;6.10;2.13;;;;;;;;;;4743705;30;20043;-73
2021/08/18 10:49:52;;;;;;;8.88;3.10;;;;;;;;;;4765201;30;20861;-72
2021/08/18 10:52:30;;;;;;;9.57;3.47;;;;;;;;;;4771054;30;20047;-72
2021/08/18 10:55:09;;;;;;;7.47;3.20;;;;;;;;;;4765118;30;20050;-73
2021/08/18 10:57:39;;;;;;;6.50;2.65;;;;;;;;;;4766914;30;20028;-73
2021/08/18 11:00:15;;;;;;;5.53;2.67;;;;;;;;;;4761422;30;20110;-75
2021/08/18 11:02:48;;;;;;;6.65;2.72;;;;;;;;;;4762236;30;20044;-74
2021/08/18 11:05:15;;;;;;;8.23;2.35;;;;;;;;;;4769684;30;20063;-73
2021/08/18 11:08:18;;;;;;;3.03;2.05;;;;;;;;;;4748158;30;20039;-73
2021/08/18 11:10:53;;;;;;;4.78;2.47;;;;;;;;;;4761885;30;20043;-73
2021/08/18 11:13:42;;;;;;;5.15;2.55;;;;;;;;;;4762779;30;20032;-73
2021/08/18 11:16:12;;;;;;;4.90;3.00;;;;;;;;;;4760925;30;20089;-72
2021/08/18 11:18:46;;;;;;;5.50;3.28;;;;;;;;;;4765139;30;20129;-73
2021/08/18 11:21:24;;;;;;;5.18;2.80;;;;;;;;;;4764492;30;20040;-72
2021/08/18 11:23:53;;;;;;;20.55;3.50;;;;;;;;;;4760178;30;20032;-72
2021/08/18 11:26:24;;;;;;;11.43;5.70;;;;;;;;;;4744956;30;20075;-72
2021/08/18 11:28:56;;;;;;;4.88;2.63;;;;;;;;;;4762225;30;20074;-75
2021/08/18 11:31:53;;;;;;;4.97;2.47;;;;;;;;;;4751204;29;20074;-74
2021/08/18 11:34:26;;;;;;;4.15;2.47;;;;;;;;;;4777002;29;20608;-74
2021/08/18 11:37:05;;;;;;;5.35;2.58;;;;;;;;;;4803381;29;20023;-74
2021/08/18 11:39:44;;;;;;;4.20;2.00;;;;;;;;;;4780664;29;20062;-73
2021/08/18 11:42:19;;;;;;;3.22;1.98;;;;;;;;;;4789042;29;20080;-73
2021/08/18 11:44:47;;;;;;;2.55;1.98;;;;;;;;;;4782204;29;20162;-75
2021/08/18 11:47:18;;;;;;;5.85;2.17;;;;;;;;;;4785084;29;20161;-74
2021/08/18 11:49:47;;;;;;;2.78;2.00;;;;;;;;;;4783184;29;20043;-72
2021/08/18 11:52:22;;;;;;;2.00;1.52;;;;;;;;;;4784518;29;20469;-74
2021/08/18 11:55:05;;;;;;;4.18;1.40;;;;;;;;;;4782651;29;21225;-73
2021/08/18 11:57:31;;;;;;;3.28;1.80;;;;;;;;;;4782797;29;20875;-74
2021/08/18 12:00:06;;;;;;;3.45;2.08;;;;;;;;;;4779830;29;20034;-74
2021/08/18 12:02:35;;;;;;;5.88;1.55;;;;;;;;;;4779435;29;20032;-73
2021/08/18 12:05:04;;;;;;;3.83;1.90;;;;;;;;;;4778533;29;20053;-73
2021/08/18 12:07:32;;;;;;;6.32;2.47;;;;;;;;;;4785668;29;20612;-73
2021/08/18 12:10:23;;;;;;;2.53;1.73;;;;;;;;;;4795440;29;20746;-75
2021/08/18 12:13:08;;;;;;;5.43;2.10;;;;;;;;;;4782713;29;20665;-74
2021/08/18 12:15:46;;;;;;;3.00;1.90;;;;;;;;;;4782803;29;20705;-73
2021/08/18 12:18:28;;;;;;;5.18;2.30;;;;;;;;;;4786525;29;20043;-74
2021/08/18 12:20:54;;;;;;;3.50;1.73;;;;;;;;;;4783017;29;20035;-73
2021/08/18 12:23:25;;;;;;;6.00;2.00;;;;;;;;;;4790771;29;20581;-72
2021/08/18 12:25:51;;;;;;;5.25;2.10;;;;;;;;;;4782394;29;20098;-73
2021/08/18 12:28:19;;;;;;;3.70;1.58;;;;;;;;;;4767217;29;20719;-73
2021/08/18 12:31:02;;;;;;;2.78;1.80;;;;;;;;;;4784217;29;20612;-72
2021/08/18 12:33:31;;;;;;;5.40;1.70;;;;;;;;;;4782042;29;20200;-72
2021/08/18 12:36:09;;;;;;;2.95;1.80;;;;;;;;;;4780350;29;20660;-74
2021/08/18 12:38:36;;;;;;;6.38;1.80;;;;;;;;;;4782416;29;20133;-73
2021/08/18 12:41:04;;;;;;;5.82;2.03;;;;;;;;;;4785211;29;20055;-73
2021/08/18 12:43:30;;;;;;;4.00;1.63;;;;;;;;;;4776485;29;20034;-73
2021/08/18 12:45:55;;;;;;;4.47;1.52;;;;;;;;;;4772948;29;20182;-73
2021/08/18 12:48:25;;;;;;;3.67;1.95;;;;;;;;;;4788219;29;20031;-74
2021/08/18 12:50:52;;;;;;;3.90;1.60;;;;;;;;;;4772342;29;20039;-74
2021/08/18 12:53:18;;;;;;;2.35;1.92;;;;;;;;;;4773023;29;20165;-75
2021/08/18 12:55:45;;;;;;;2.60;1.85;;;;;;;;;;4770994;29;20043;-74
2021/08/18 12:58:20;;;;;;;4.90;1.98;;;;;;;;;;4773591;29;20041;-75
2021/08/18 13:00:46;;;;;;;5.28;1.77;;;;;;;;;;4776816;29;20050;-72
2021/08/18 13:03:13;;;;;;;4.18;1.88;;;;;;;;;;4775331;29;20043;-73
2021/08/18 13:05:42;;;;;;;6.38;1.55;;;;;;;;;;4772443;29;20478;-73
2021/08/18 13:08:08;;;;;;;2.53;2.00;;;;;;;;;;4775553;29;20039;-74
2021/08/18 13:10:34;;;;;;;4.18;1.70;;;;;;;;;;4775716;29;20046;-73
2021/08/18 13:13:01;;;;;;;2.55;1.90;;;;;;;;;;4774073;29;20099;-71
2021/08/18 13:15:28;;;;;;;3.60;1.55;;;;;;;;;;4761991;29;20049;-72
2021/08/18 13:17:54;;;;;;;2.90;1.67;;;;;;;;;;4775753;29;20035;-73
2021/08/18 13:20:24;;;;;;;2.55;1.85;;;;;;;;;;4772111;29;20031;-74
2021/08/18 13:22:50;;;;;;;3.08;1.50;;;;;;;;;;4776586;29;20035;-73
2021/08/18 13:25:16;;;;;;;2.72;1.40;;;;;;;;;;4774052;29;20043;-73
2021/08/18 13:27:42;;;;;;;2.17;1.35;;;;;;;;;;4775353;29;20035;-72
2021/08/18 13:30:13;;;;;;;4.57;1.60;;;;;;;;;;4788642;29;20142;-72
2021/08/18 13:32:39;;;;;;;4.82;2.00;;;;;;;;;;4774001;29;20988;-73
2021/08/18 13:35:06;;;;;;;4.90;1.77;;;;;;;;;;4788602;29;20067;-74
2021/08/18 13:37:32;;;;;;;3.17;2.03;;;;;;;;;;4776168;29;20027;-73
2021/08/18 13:39:58;;;;;;;4.53;1.90;;;;;;;;;;4792950;29;20047;-74
2021/08/18 13:42:29;;;;;;;2.38;2.00;;;;;;;;;;4772800;29;20551;-73
2021/08/18 13:44:57;;;;;;;5.55;1.95;;;;;;;;;;4775740;29;20035;-74
2021/08/18 13:47:27;;;;;;;3.30;2.15;;;;;;;;;;4777096;29;20038;-74
2021/08/18 13:49:53;;;;;;;4.10;2.55;;;;;;;;;;4776637;29;20043;-72
2021/08/18 13:52:19;;;;;;;4.78;2.40;;;;;;;;;;4779557;29;20062;-74
2021/08/18 13:54:45;;;;;;;6.00;2.15;;;;;;;;;;4774751;29;20066;-73
2021/08/18 13:57:12;;;;;;;6.28;2.22;;;;;;;;;;4777612;29;20041;-73
2021/08/18 13:59:40;;;;;;;2.15;1.73;;;;;;;;;;4778953;29;20039;-74
2021/08/18 14:02:07;;;;;;;6.35;2.78;;;;;;;;;;4774616;29;20038;-72
2021/08/18 14:04:33;;;;;;;6.32;2.13;;;;;;;;;;4790864;29;20093;-71
2021/08/18 14:06:59;;;;;;;4.60;2.58;;;;;;;;;;4775911;29;20042;-75
2021/08/18 14:09:25;;;;;;;2.92;2.22;;;;;;;;;;4778814;29;20027;-75
2021/08/18 14:11:54;;;;;;;5.70;2.58;;;;;;;;;;4778229;29;20037;-74
2021/08/18 14:14:20;;;;;;;3.42;2.67;;;;;;;;;;4782189;29;20054;-72
2021/08/18 14:16:46;;;;;;;5.90;2.30;;;;;;;;;;4785888;29;20031;-73
2021/08/18 14:19:14;;;;;;;6.07;2.40;;;;;;;;;;4793363;29;20051;-72
2021/08/18 14:21:40;;;;;;;4.25;2.63;;;;;;;;;;4782798;29;20038;-73
2021/08/18 14:24:06;;;;;;;4.15;2.88;;;;;;;;;;4780014;29;20371;-72
2021/08/18 14:26:32;;;;;;;4.55;3.22;;;;;;;;;;4782024;29;20030;-73
2021/08/18 14:28:58;;;;;;;4.13;2.85;;;;;;;;;;4780323;29;20031;-73
2021/08/18 14:31:24;;;;;;;5.15;2.90;;;;;;;;;;4779222;29;20081;-73
2021/08/18 14:33:51;;;;;;;4.75;2.72;;;;;;;;;;4777569;29;20501;-73
2021/08/18 14:36:20;;;;;;;4.90;2.60;;;;;;;;;;4794444;29;20050;-73
2021/08/18 14:38:46;;;;;;;4.05;2.95;;;;;;;;;;4774051;29;20737;-74
2021/08/18 14:41:13;;;;;;;5.80;3.22;;;;;;;;;;4794169;29;20068;-71